createdAt,value
2023-05-16T00:00:39.867Z,1.50
2023-05-16T00:05:39.876Z,1.50
2023-05-16T00:10:39.872Z,1.50
2023-05-16T00:15:39.860Z,1.50
2023-05-16T00:20:39.866Z,1.50
2023-05-16T00:25:39.886Z,1.50
2023-05-16T00:30:39.872Z,1.30
2023-05-16T00:35:39.880Z,1.30
2023-05-16T00:45:39.874Z,1.70
2023-05-16T00:50:39.913Z,1.70
2023-05-16T00:55:39.894Z,1.70
2023-05-16T01:00:39.899Z,1.50
2023-05-16T01:15:39.990Z,1.80
2023-05-16T01:20:39.932Z,1.80
2023-05-16T01:25:39.866Z,1.80
2023-05-16T01:30:39.952Z,1.50
2023-05-16T01:35:39.894Z,1.50
2023-05-16T01:40:39.906Z,1.50
2023-05-16T01:45:39.906Z,1.30
2023-05-16T01:50:39.915Z,1.30
2023-05-16T02:00:39.909Z,1.20
2023-05-16T02:05:39.899Z,1.20
2023-05-16T02:10:39.911Z,1.20
2023-05-16T02:15:39.914Z,1.20
2023-05-16T02:25:39.893Z,1.20
2023-05-16T02:30:39.946Z,1.30
2023-05-16T02:40:39.906Z,1.30
2023-05-16T02:45:39.938Z,1.50
2023-05-16T02:50:39.914Z,1.50
2023-05-16T02:55:40.080Z,1.50
2023-05-16T03:00:39.899Z,1.40
2023-05-16T03:05:39.937Z,1.40
2023-05-16T03:10:39.928Z,1.40
2023-05-16T03:15:39.927Z,1.40
2023-05-16T03:20:39.926Z,1.40
2023-05-16T03:25:39.943Z,1.40
2023-05-16T03:30:39.925Z,1.40
2023-05-16T03:35:39.942Z,1.40
2023-05-16T03:40:39.928Z,1.40
2023-05-16T03:45:40.006Z,1.50
2023-05-16T03:50:41.113Z,1.50
2023-05-16T03:55:39.921Z,1.50
2023-05-16T04:00:39.967Z,1.20
2023-05-16T04:05:39.970Z,1.20
2023-05-16T04:15:39.932Z,1.40
2023-05-16T04:20:39.945Z,1.40
2023-05-16T04:35:39.954Z,1.20
2023-05-16T04:40:39.977Z,1.20
2023-05-16T04:45:39.955Z,1.50
2023-05-16T04:50:39.970Z,1.50
2023-05-16T04:55:39.949Z,1.50
2023-05-16T05:05:39.972Z,1.50
2023-05-16T05:10:39.944Z,1.50
2023-05-16T05:15:39.969Z,1.50
2023-05-16T05:20:40.006Z,1.50
2023-05-16T05:25:39.961Z,1.50
2023-05-16T05:35:39.979Z,1.50
2023-05-16T05:40:39.976Z,1.50
2023-05-16T05:45:40.022Z,1.50
2023-05-16T05:50:40.001Z,1.50
2023-05-16T05:55:39.967Z,1.50
2023-05-16T06:00:39.995Z,1.40
2023-05-16T06:10:39.975Z,1.40
2023-05-16T06:15:39.999Z,1.40
2023-05-16T06:20:39.994Z,1.40
2023-05-16T06:30:40.010Z,1.60
2023-05-16T06:35:39.998Z,1.60
2023-05-16T06:40:40.009Z,1.60
2023-05-16T06:45:40.011Z,1.40
2023-05-16T06:50:39.996Z,1.40
2023-05-16T06:55:40.010Z,1.40
2023-05-16T07:00:39.996Z,1.40
2023-05-16T07:05:40.016Z,1.40
2023-05-16T07:10:40.015Z,1.40
2023-05-16T07:15:40.011Z,1.50
2023-05-16T07:20:41.029Z,1.50
2023-05-16T07:25:40.001Z,1.50
2023-05-16T07:30:39.998Z,1.20
2023-05-16T07:35:40.042Z,1.20
2023-05-16T07:40:40.018Z,1.20
2023-05-16T07:45:40.071Z,1.20
2023-05-16T07:50:40.001Z,1.20
2023-05-16T07:55:40.012Z,0.80
2023-05-16T08:00:40.033Z,0.80
2023-05-16T08:05:40.089Z,0.80
2023-05-16T08:10:40.033Z,1.10
2023-05-16T08:15:40.072Z,1.10
2023-05-16T08:20:40.060Z,1.10
2023-05-16T08:25:40.024Z,1.10
2023-05-16T08:30:42.543Z,1.10
2023-05-16T08:35:40.052Z,1.10
2023-05-16T08:40:40.086Z,0.90
2023-05-16T08:45:40.016Z,0.90
2023-05-16T08:50:40.040Z,0.90
2023-05-16T08:55:40.023Z,0.90
2023-05-16T09:00:40.092Z,0.90
2023-05-16T09:05:40.034Z,0.90
2023-05-16T09:15:40.057Z,0.80
2023-05-16T09:20:40.030Z,0.80
2023-05-16T09:25:40.059Z,0.90
2023-05-16T09:30:40.057Z,0.90
2023-05-16T09:35:45.389Z,0.90
2023-05-16T09:40:40.064Z,0.70
2023-05-16T09:45:40.046Z,0.70
2023-05-16T09:50:40.086Z,0.70
2023-05-16T09:55:40.045Z,0.60
2023-05-16T10:00:40.064Z,0.60
2023-05-16T10:05:40.062Z,0.60
2023-05-16T10:10:40.057Z,1.10
2023-05-16T10:15:40.084Z,1.10
2023-05-16T10:20:40.067Z,1.10
2023-05-16T10:25:40.066Z,0.90
2023-05-16T10:30:40.093Z,0.90
2023-05-16T10:35:40.058Z,0.90
2023-05-16T10:40:40.088Z,0.90
2023-05-16T10:45:40.100Z,0.90
2023-05-16T10:50:40.076Z,0.90
2023-05-16T10:55:40.096Z,0.90
2023-05-16T11:00:40.060Z,0.90
2023-05-16T11:05:40.092Z,0.90
2023-05-16T11:10:40.077Z,0.90
2023-05-16T11:15:40.103Z,0.90
2023-05-16T11:20:40.116Z,0.90
2023-05-16T11:25:40.087Z,0.60
2023-05-16T11:30:40.080Z,0.60
2023-05-16T11:35:40.143Z,0.60
2023-05-16T11:40:40.089Z,1.10
2023-05-16T11:45:40.104Z,1.10
2023-05-16T11:50:40.095Z,1.10
2023-05-16T11:55:42.383Z,0.80
2023-05-16T12:00:40.129Z,0.80
2023-05-16T12:05:40.149Z,0.80
2023-05-16T12:10:40.120Z,1.00
2023-05-16T12:15:40.108Z,1.00
2023-05-16T12:20:40.120Z,1.00
2023-05-16T12:25:40.130Z,1.30
2023-05-16T12:30:40.114Z,1.30
2023-05-16T12:35:40.116Z,1.30
2023-05-16T12:40:40.128Z,0.80
2023-05-16T12:45:40.129Z,0.80
2023-05-16T12:50:40.143Z,0.80
2023-05-16T12:55:40.121Z,0.70
2023-05-16T13:00:40.132Z,0.70
2023-05-16T13:05:40.131Z,0.70
2023-05-16T13:10:40.131Z,0.90
2023-05-16T13:15:40.212Z,0.90
2023-05-16T13:20:40.146Z,0.90
2023-05-16T13:25:40.141Z,0.80
2023-05-16T13:30:40.119Z,0.80
2023-05-16T13:35:40.148Z,0.80
2023-05-16T13:40:40.974Z,1.00
2023-05-16T13:45:40.185Z,1.00
2023-05-16T13:55:40.160Z,1.10
2023-05-16T14:00:45.267Z,1.10
2023-05-16T14:05:40.175Z,1.10
2023-05-16T14:10:40.159Z,0.90
2023-05-16T14:15:40.139Z,0.90
2023-05-16T14:20:40.159Z,0.90
2023-05-16T14:25:40.165Z,1.20
2023-05-16T14:30:40.169Z,1.20
2023-05-16T14:35:40.155Z,1.20
2023-05-16T14:40:40.181Z,0.80
2023-05-16T14:45:40.149Z,0.80
2023-05-16T14:50:40.169Z,0.80
2023-05-16T14:55:40.190Z,1.10
2023-05-16T15:00:40.162Z,1.10
2023-05-16T15:05:40.191Z,1.10
2023-05-16T15:10:40.189Z,1.30
2023-05-16T15:15:40.188Z,1.30
2023-05-16T15:20:40.178Z,1.30
2023-05-16T15:25:40.195Z,1.10
2023-05-16T15:30:40.173Z,1.10
2023-05-16T15:35:40.168Z,1.10
2023-05-16T15:45:40.696Z,1.30
2023-05-16T15:50:40.191Z,1.30
2023-05-16T16:00:40.196Z,1.10
2023-05-16T16:05:40.199Z,1.10
2023-05-16T16:10:40.191Z,1.00
2023-05-16T16:15:40.215Z,1.00
2023-05-16T16:20:40.211Z,1.00
2023-05-16T16:25:40.223Z,1.20
2023-05-16T16:30:40.218Z,1.20
2023-05-16T16:35:40.218Z,1.20
2023-05-16T16:40:40.229Z,1.00
2023-05-16T16:45:40.197Z,1.00
2023-05-16T16:50:40.216Z,1.00
2023-05-16T16:55:40.998Z,1.10
2023-05-16T17:00:40.279Z,1.10
2023-05-16T17:05:40.215Z,1.10
2023-05-16T17:10:40.248Z,0.90
2023-05-16T17:20:40.205Z,0.90
2023-05-16T17:25:40.213Z,1.00
2023-05-16T17:35:41.656Z,1.00
2023-05-16T17:40:40.241Z,1.10
2023-05-16T17:45:40.229Z,1.10
2023-05-16T17:50:40.234Z,1.10
2023-05-16T17:55:40.206Z,0.90
2023-05-16T18:00:40.259Z,0.90
2023-05-16T18:05:40.280Z,0.90
2023-05-16T18:10:50.898Z,1.30
2023-05-16T18:15:40.264Z,1.30
2023-05-16T18:20:40.261Z,1.30
2023-05-16T18:25:40.229Z,1.20
2023-05-16T18:30:40.253Z,1.20
2023-05-16T18:35:40.242Z,1.20
2023-05-16T18:40:40.240Z,1.00
2023-05-16T18:45:40.237Z,1.00
2023-05-16T18:50:40.239Z,1.00
2023-05-16T18:55:40.261Z,1.30
2023-05-16T19:00:40.251Z,1.30
2023-05-16T19:05:40.393Z,1.30
2023-05-16T19:10:40.265Z,1.20
2023-05-16T19:15:40.255Z,1.20
2023-05-16T19:20:40.282Z,1.20
2023-05-16T19:25:40.266Z,1.10
2023-05-16T19:30:40.303Z,1.10
2023-05-16T19:35:40.285Z,1.10
2023-05-16T19:50:40.275Z,1.30
2023-05-16T19:55:40.260Z,1.70
2023-05-16T20:00:40.313Z,1.70
2023-05-16T20:05:40.299Z,1.70
2023-05-16T20:10:40.293Z,1.40
2023-05-16T20:20:40.272Z,1.40
2023-05-16T20:25:40.302Z,1.70
2023-05-16T20:30:40.282Z,1.70
2023-05-16T20:40:40.305Z,1.70
2023-05-16T20:45:40.283Z,1.70
2023-05-16T20:55:40.284Z,1.80
2023-05-16T21:00:40.305Z,1.80
2023-05-16T21:05:40.539Z,1.80
2023-05-16T21:15:40.408Z,1.70
2023-05-16T21:25:40.305Z,2.10
2023-05-16T21:30:40.306Z,2.10
2023-05-16T21:35:40.305Z,2.10
2023-05-16T21:40:40.319Z,2.40
2023-05-16T21:50:40.337Z,2.40
2023-05-16T22:10:40.343Z,2.20
2023-05-16T22:15:42.482Z,2.20
2023-05-16T22:25:41.680Z,2.00
2023-05-16T22:30:40.338Z,2.00
2023-05-16T22:55:40.345Z,2.00
2023-05-16T23:00:40.344Z,2.00
2023-05-16T23:05:40.330Z,2.00
2023-05-16T23:10:40.345Z,2.40
2023-05-16T23:15:40.360Z,2.40
2023-05-16T23:20:40.342Z,2.40
2023-05-16T23:35:40.340Z,2.40
2023-05-16T23:45:40.340Z,2.20
2023-05-16T23:50:40.358Z,2.20
